createdAt,value
2023-03-17T00:01:13.891Z,100605.69
2023-03-17T00:03:46.665Z,100609.92
2023-03-17T00:06:24.650Z,100608.85
2023-03-17T00:08:55.502Z,100607.11
2023-03-17T00:11:28.218Z,100601.06
2023-03-17T00:13:58.847Z,100606.35
2023-03-17T00:16:32.672Z,100595.98
2023-03-17T00:19:04.167Z,100589.59
2023-03-17T00:21:36.932Z,100587.15
2023-03-17T00:24:12.963Z,100571.73
2023-03-17T00:26:46.203Z,100572.67
2023-03-17T00:29:17.455Z,100571.79
2023-03-17T00:31:49.410Z,100569.29
2023-03-17T00:34:21.397Z,100562.70
2023-03-17T00:36:53.514Z,100562.98
2023-03-17T00:39:27.259Z,100551.38
2023-03-17T00:41:58.364Z,100550.13
2023-03-17T00:44:29.084Z,100551.16
2023-03-17T00:47:00.829Z,100544.45
2023-03-17T00:49:32.798Z,100544.11
2023-03-17T00:52:03.475Z,100548.66
2023-03-17T00:54:34.096Z,100544.25
2023-03-17T00:57:05.110Z,100538.67
2023-03-17T00:59:42.221Z,100523.64
2023-03-17T01:02:15.768Z,100526.23
2023-03-17T01:04:52.813Z,100525.95
2023-03-17T01:07:30.833Z,100525.75
2023-03-17T01:10:01.540Z,100521.73
2023-03-17T01:12:33.135Z,100519.75
2023-03-17T01:15:04.135Z,100517.96
2023-03-17T01:17:34.744Z,100513.14
2023-03-17T01:20:06.683Z,100509.02
2023-03-17T01:22:38.403Z,100503.06
2023-03-17T01:25:10.478Z,100499.52
2023-03-17T01:27:41.975Z,100500.62
2023-03-17T01:30:21.944Z,100494.89
2023-03-17T01:32:52.902Z,100496.90
2023-03-17T01:35:25.839Z,100499.46
2023-03-17T01:37:57.212Z,100491.43
2023-03-17T01:40:32.319Z,100486.98
2023-03-17T01:43:18.560Z,100478.21
2023-03-17T01:46:27.702Z,100473.80
2023-03-17T01:49:05.675Z,100477.52
2023-03-17T01:51:42.883Z,100478.81
2023-03-17T01:54:18.110Z,100470.84
2023-03-17T01:56:52.831Z,100466.69
2023-03-17T01:59:27.847Z,100460.04
2023-03-17T02:02:02.900Z,100459.27
2023-03-17T02:04:35.090Z,100460.62
2023-03-17T02:07:07.140Z,100456.77
2023-03-17T02:09:38.668Z,100443.93
2023-03-17T02:12:12.038Z,100446.45
2023-03-17T02:14:42.817Z,100452.16
2023-03-17T02:17:14.696Z,100443.66
2023-03-17T02:19:46.340Z,100441.14
2023-03-17T02:22:18.753Z,100441.22
2023-03-17T02:24:53.278Z,100448.21
2023-03-17T02:27:27.848Z,100440.68
2023-03-17T02:29:59.859Z,100437.94
2023-03-17T02:32:30.673Z,100437.70
2023-03-17T02:35:01.799Z,100433.05
2023-03-17T02:37:33.000Z,100429.19
2023-03-17T02:40:05.600Z,100433.05
2023-03-17T02:42:36.727Z,100430.79
2023-03-17T02:45:11.648Z,100436.90
2023-03-17T02:47:42.810Z,100447.20
2023-03-17T02:50:19.229Z,100442.95
2023-03-17T02:52:50.093Z,100439.33
2023-03-17T02:55:21.419Z,100442.93
2023-03-17T02:57:52.145Z,100446.10
2023-03-17T03:00:24.314Z,100445.63
2023-03-17T03:02:55.270Z,100445.80
2023-03-17T03:05:26.688Z,100438.85
2023-03-17T03:07:57.647Z,100434.20
2023-03-17T03:10:28.856Z,100430.86
2023-03-17T03:12:59.570Z,100429.36
2023-03-17T03:15:30.206Z,100425.63
2023-03-17T03:18:01.038Z,100416.86
2023-03-17T03:20:32.006Z,100422.03
2023-03-17T03:23:03.066Z,100422.08
2023-03-17T03:25:34.425Z,100426.13
2023-03-17T03:28:05.048Z,100424.59
2023-03-17T03:30:35.814Z,100427.52
2023-03-17T03:33:07.836Z,100428.95
2023-03-17T03:35:38.613Z,100430.41
2023-03-17T03:38:09.375Z,100432.27
2023-03-17T03:40:40.639Z,100436.15
2023-03-17T03:43:22.428Z,100444.09
2023-03-17T03:45:54.653Z,100445.05
2023-03-17T03:48:26.078Z,100437.44
2023-03-17T03:51:00.914Z,100425.79
2023-03-17T03:53:32.053Z,100433.79
2023-03-17T03:56:03.262Z,100427.77
2023-03-17T03:58:33.968Z,100424.81
2023-03-17T04:01:09.476Z,100423.55
2023-03-17T04:03:40.539Z,100421.71
2023-03-17T04:06:11.869Z,100416.45
2023-03-17T04:08:42.651Z,100418.27
2023-03-17T04:11:13.403Z,100413.83
2023-03-17T04:13:44.241Z,100415.55
2023-03-17T04:16:15.102Z,100409.96
2023-03-17T04:18:46.183Z,100412.55
2023-03-17T04:21:19.034Z,100405.31
2023-03-17T04:23:49.719Z,100404.89
2023-03-17T04:26:21.812Z,100415.30
2023-03-17T04:28:52.757Z,100417.07
2023-03-17T04:31:23.442Z,100416.27
2023-03-17T04:33:54.157Z,100412.27
2023-03-17T04:36:26.025Z,100414.02
2023-03-17T04:38:56.739Z,100418.84
2023-03-17T04:41:27.969Z,100419.44
2023-03-17T04:43:58.708Z,100416.70
2023-03-17T04:46:29.443Z,100412.95
2023-03-17T04:49:00.156Z,100400.55
2023-03-17T04:51:31.235Z,100392.27
2023-03-17T04:54:02.343Z,100393.06
2023-03-17T04:56:33.165Z,100395.21
2023-03-17T04:59:03.871Z,100398.02
2023-03-17T05:01:34.626Z,100402.48
2023-03-17T05:04:06.800Z,100399.08
2023-03-17T05:06:38.309Z,100385.86
2023-03-17T05:09:08.939Z,100387.89
2023-03-17T05:11:41.480Z,100379.54
2023-03-17T05:14:12.325Z,100379.31
2023-03-17T05:16:43.127Z,100373.32
2023-03-17T05:19:13.864Z,100366.64
2023-03-17T05:21:44.693Z,100369.23
2023-03-17T05:24:15.629Z,100363.66
2023-03-17T05:26:46.584Z,100367.95
2023-03-17T05:29:17.440Z,100366.22
2023-03-17T05:31:48.867Z,100375.38
2023-03-17T05:34:19.659Z,100384.11
2023-03-17T05:36:50.481Z,100383.85
2023-03-17T05:39:21.236Z,100377.48
2023-03-17T05:41:52.332Z,100383.08
2023-03-17T05:44:23.083Z,100375.08
2023-03-17T05:46:55.216Z,100382.73
2023-03-17T05:49:25.971Z,100382.36
2023-03-17T05:51:56.898Z,100381.96
2023-03-17T05:54:27.716Z,100381.50
2023-03-17T05:56:58.456Z,100381.59
2023-03-17T05:59:29.774Z,100384.45
2023-03-17T06:02:02.989Z,100383.22
2023-03-17T06:04:34.200Z,100386.47
2023-03-17T06:07:06.013Z,100393.67
2023-03-17T06:09:36.902Z,100399.44
2023-03-17T06:12:09.399Z,100396.73
2023-03-17T06:14:40.421Z,100398.98
2023-03-17T06:17:12.506Z,100405.34
2023-03-17T06:19:43.858Z,100399.61
2023-03-17T06:22:15.105Z,100390.98
2023-03-17T06:24:45.993Z,100392.38
2023-03-17T06:27:16.824Z,100389.21
2023-03-17T06:29:47.670Z,100391.77
2023-03-17T06:32:20.939Z,100395.30
2023-03-17T06:34:53.843Z,100400.09
2023-03-17T06:37:24.691Z,100412.72
2023-03-17T06:39:55.733Z,100413.52
2023-03-17T06:42:26.625Z,100411.63
2023-03-17T06:44:57.417Z,100410.73
2023-03-17T06:47:28.315Z,100417.00
2023-03-17T06:49:59.031Z,100410.73
2023-03-17T06:52:29.635Z,100413.73
2023-03-17T06:55:00.476Z,100422.66
2023-03-17T06:57:31.040Z,100425.81
2023-03-17T07:00:01.779Z,100428.81
2023-03-17T07:02:32.431Z,100433.58
2023-03-17T07:05:04.497Z,100439.42
2023-03-17T07:07:36.074Z,100438.02
2023-03-17T07:10:10.442Z,100429.31
2023-03-17T07:12:41.319Z,100423.08
2023-03-17T07:15:13.688Z,100417.25
2023-03-17T07:17:46.643Z,100407.96
2023-03-17T07:20:17.963Z,100395.38
2023-03-17T07:22:48.886Z,100392.40
2023-03-17T07:25:20.744Z,100405.88
2023-03-17T07:27:52.055Z,100411.98
2023-03-17T07:30:23.461Z,100410.36
2023-03-17T07:32:55.254Z,100396.63
2023-03-17T07:35:25.965Z,100381.75
2023-03-17T07:37:56.831Z,100380.19
2023-03-17T07:40:28.189Z,100371.42
2023-03-17T07:42:59.579Z,100373.90
2023-03-17T07:45:30.797Z,100373.72
2023-03-17T07:48:01.868Z,100364.67
2023-03-17T07:50:32.533Z,100362.77
2023-03-17T07:53:04.673Z,100362.02
2023-03-17T07:55:37.243Z,100357.06
2023-03-17T07:58:09.371Z,100361.79
2023-03-17T08:00:40.157Z,100351.69
2023-03-17T08:03:11.227Z,100351.83
2023-03-17T08:05:42.340Z,100352.61
2023-03-17T08:08:14.044Z,100362.61
2023-03-17T08:10:44.829Z,100363.89
2023-03-17T08:13:16.528Z,100364.48
2023-03-17T08:15:47.512Z,100353.52
2023-03-17T08:18:18.780Z,100346.88
2023-03-17T08:20:49.835Z,100343.92
2023-03-17T08:23:21.644Z,100343.36
2023-03-17T08:25:56.914Z,100350.01
2023-03-17T08:28:28.006Z,100349.81
2023-03-17T08:31:12.233Z,100341.09
2023-03-17T08:33:44.125Z,100338.64
2023-03-17T08:36:16.352Z,100343.21
2023-03-17T08:38:48.693Z,100333.07
2023-03-17T08:41:22.800Z,100326.71
2023-03-17T08:43:53.520Z,100329.75
2023-03-17T08:46:26.161Z,100321.47
2023-03-17T08:48:58.541Z,100327.86
2023-03-17T08:51:29.563Z,100328.27
2023-03-17T08:53:59.868Z,100339.29
2023-03-17T08:56:30.907Z,100326.75
2023-03-17T08:59:01.972Z,100323.69
2023-03-17T09:01:33.088Z,100318.09
2023-03-17T09:04:03.821Z,100322.33
2023-03-17T09:06:34.585Z,100320.43
2023-03-17T09:09:05.263Z,100317.81
2023-03-17T09:11:36.660Z,100317.38
2023-03-17T09:14:07.262Z,100313.69
2023-03-17T09:16:38.033Z,100320.42
2023-03-17T09:19:08.688Z,100309.28
2023-03-17T09:21:39.380Z,100297.78
2023-03-17T09:24:11.627Z,100295.03
2023-03-17T09:26:42.661Z,100312.90
2023-03-17T09:29:15.279Z,100306.27
2023-03-17T09:31:47.102Z,100312.20
2023-03-17T09:34:18.257Z,100314.73
2023-03-17T09:36:49.348Z,100306.92
2023-03-17T09:39:22.390Z,100291.95
2023-03-17T09:42:02.195Z,100291.42
2023-03-17T09:44:45.969Z,100288.92
2023-03-17T09:47:34.254Z,100294.39
2023-03-17T09:50:11.808Z,100293.45
2023-03-17T09:52:43.702Z,100285.13
2023-03-17T09:55:24.132Z,100299.97
2023-03-17T09:57:58.894Z,100290.05
2023-03-17T10:00:31.370Z,100294.06
2023-03-17T10:03:01.605Z,100298.59
2023-03-17T10:05:36.788Z,100289.55
2023-03-17T10:08:29.646Z,100291.98
2023-03-17T10:11:13.493Z,100294.81
2023-03-17T10:13:55.695Z,100291.73
2023-03-17T10:16:38.246Z,100277.33
2023-03-17T10:19:18.493Z,100296.91
2023-03-17T10:21:53.402Z,100293.81
2023-03-17T10:24:25.628Z,100286.66
2023-03-17T10:27:03.052Z,100270.61
2023-03-17T10:29:33.839Z,100274.54
2023-03-17T10:32:04.978Z,100276.38
2023-03-17T10:34:38.210Z,100267.31
2023-03-17T10:37:11.144Z,100265.98
2023-03-17T10:39:48.267Z,100262.73
2023-03-17T10:42:25.878Z,100264.33
2023-03-17T10:44:58.939Z,100264.89
2023-03-17T10:47:33.916Z,100272.45
2023-03-17T10:50:20.339Z,100270.52
2023-03-17T10:52:58.122Z,100273.13
2023-03-17T10:55:33.172Z,100271.70
2023-03-17T10:58:07.790Z,100266.17
2023-03-17T11:00:39.441Z,100270.92
2023-03-17T11:03:18.359Z,100278.26
2023-03-17T11:05:59.150Z,100261.49
2023-03-17T11:08:35.504Z,100260.55
2023-03-17T11:11:10.209Z,100256.58
2023-03-17T11:13:41.261Z,100252.66
2023-03-17T11:16:23.377Z,100251.27
2023-03-17T11:18:57.572Z,100241.40
2023-03-17T11:21:31.174Z,100239.42
2023-03-17T11:24:08.329Z,100247.15
2023-03-17T11:26:57.470Z,100233.08
2023-03-17T11:29:40.091Z,100240.69
2023-03-17T11:32:26.815Z,100240.30
2023-03-17T11:35:23.261Z,100238.77
2023-03-17T11:38:09.147Z,100228.05
2023-03-17T11:40:54.865Z,100228.83
2023-03-17T11:43:34.414Z,100236.14
2023-03-17T11:46:10.886Z,100214.63
2023-03-17T11:48:51.219Z,100224.17
2023-03-17T11:51:30.530Z,100213.02
2023-03-17T11:54:12.023Z,100214.48
2023-03-17T11:56:47.227Z,100219.11
2023-03-17T11:59:27.746Z,100227.79
2023-03-17T12:02:04.789Z,100212.36
2023-03-17T12:04:39.215Z,100204.76
2023-03-17T12:07:20.802Z,100212.00
2023-03-17T12:10:01.115Z,100215.86
2023-03-17T12:12:38.262Z,100209.61
2023-03-17T12:15:21.186Z,100205.96
2023-03-17T12:17:58.898Z,100207.36
2023-03-17T12:20:36.206Z,100195.78
2023-03-17T12:23:14.270Z,100190.92
2023-03-17T12:25:57.694Z,100188.89
2023-03-17T12:28:32.934Z,100184.52
2023-03-17T12:31:06.877Z,100175.75
2023-03-17T12:33:44.844Z,100172.38
2023-03-17T12:36:18.178Z,100180.48
2023-03-17T12:38:56.946Z,100180.59
2023-03-17T12:41:56.738Z,100179.48
2023-03-17T12:44:44.722Z,100161.10
2023-03-17T12:47:42.866Z,100153.27
2023-03-17T12:51:06.799Z,100158.44
2023-03-17T12:53:39.901Z,100159.85
2023-03-17T12:56:19.292Z,100156.10
2023-03-17T12:58:52.623Z,100156.44
2023-03-17T13:01:34.086Z,100151.86
2023-03-17T13:04:18.118Z,100153.02
2023-03-17T13:06:56.128Z,100155.16
2023-03-17T13:09:53.209Z,100155.02
2023-03-17T13:13:05.818Z,100153.14
2023-03-17T13:16:00.513Z,100156.79
2023-03-17T13:19:07.443Z,100148.62
2023-03-17T13:21:38.999Z,100135.84
2023-03-17T13:24:41.884Z,100136.17
2023-03-17T13:27:17.557Z,100132.41
2023-03-17T13:29:49.289Z,100135.84
2023-03-17T13:32:45.909Z,100133.34
2023-03-17T13:35:17.252Z,100134.55
2023-03-17T13:38:22.246Z,100130.22
2023-03-17T13:41:09.445Z,100121.17
2023-03-17T13:43:55.622Z,100110.25
2023-03-17T13:46:32.740Z,100108.15
2023-03-17T13:49:16.446Z,100124.02
2023-03-17T13:52:00.003Z,100109.45
2023-03-17T13:54:41.826Z,100109.13
2023-03-17T13:57:28.057Z,100110.72
2023-03-17T14:00:05.604Z,100096.88
2023-03-17T14:02:41.057Z,100097.88
2023-03-17T14:05:23.749Z,100099.67
2023-03-17T14:07:58.266Z,100094.92
2023-03-17T14:10:31.435Z,100104.09
2023-03-17T14:13:09.084Z,100095.58
2023-03-17T14:15:48.123Z,100091.17
2023-03-17T14:18:21.462Z,100089.07
2023-03-17T14:21:00.607Z,100089.89
2023-03-17T14:23:31.536Z,100094.93
2023-03-17T14:26:03.818Z,100096.70
2023-03-17T14:28:35.984Z,100082.09
2023-03-17T14:31:08.711Z,100079.48
2023-03-17T14:33:41.963Z,100075.73
2023-03-17T14:36:14.769Z,100069.48
2023-03-17T14:38:52.211Z,100070.42
2023-03-17T14:41:25.385Z,100060.83
2023-03-17T14:44:01.568Z,100055.80
2023-03-17T14:46:35.261Z,100049.52
2023-03-17T14:49:17.130Z,100050.28
2023-03-17T14:51:49.330Z,100053.34
2023-03-17T14:54:23.385Z,100052.11
2023-03-17T14:57:02.025Z,100058.95
2023-03-17T14:59:36.991Z,100059.83
2023-03-17T15:02:22.773Z,100064.85
2023-03-17T15:04:57.451Z,100058.61
2023-03-17T15:07:41.376Z,100057.67
2023-03-17T15:10:19.743Z,100055.75
2023-03-17T15:12:52.164Z,100048.30
2023-03-17T15:15:26.849Z,100058.86
2023-03-17T15:18:01.097Z,100051.41
2023-03-17T15:20:35.308Z,100054.24
2023-03-17T15:23:17.092Z,100042.66
2023-03-17T15:25:50.503Z,100039.14
2023-03-17T15:28:22.535Z,100036.40
2023-03-17T15:30:55.710Z,100043.13
2023-03-17T15:33:37.016Z,100038.30
2023-03-17T15:36:14.426Z,100045.64
2023-03-17T15:38:47.449Z,100044.77
2023-03-17T15:41:18.314Z,100042.52
2023-03-17T15:43:48.921Z,100034.36
2023-03-17T15:46:27.610Z,100038.11
2023-03-17T15:48:58.494Z,100036.20
2023-03-17T15:51:29.218Z,100040.38
2023-03-17T15:54:00.115Z,100037.14
2023-03-17T15:56:31.778Z,100032.63
2023-03-17T15:59:02.581Z,100030.30
2023-03-17T16:01:33.308Z,100033.79
2023-03-17T16:04:04.806Z,100024.19
2023-03-17T16:06:36.867Z,100022.25
2023-03-17T16:09:14.648Z,100022.55
2023-03-17T16:11:45.838Z,100024.04
2023-03-17T16:14:16.463Z,100017.65
2023-03-17T16:16:47.124Z,100018.58
2023-03-17T16:19:22.004Z,100017.92
2023-03-17T16:21:53.061Z,100015.39
2023-03-17T16:24:27.117Z,100014.34
2023-03-17T16:26:57.869Z,100013.63
2023-03-17T16:29:28.591Z,100006.84
2023-03-17T16:31:59.574Z,100007.84
2023-03-17T16:34:30.211Z,100006.69
2023-03-17T16:37:01.117Z,100005.76
2023-03-17T16:39:32.709Z,100014.09
2023-03-17T16:42:04.939Z,100012.72
2023-03-17T16:44:35.886Z,100018.67
2023-03-17T16:47:07.329Z,100016.14
2023-03-17T16:49:38.014Z,100012.55
2023-03-17T16:52:10.545Z,100015.86
2023-03-17T16:54:41.275Z,100015.70
2023-03-17T16:57:14.668Z,100017.99
2023-03-17T16:59:45.382Z,100016.06
2023-03-17T17:02:18.513Z,100018.27
2023-03-17T17:04:49.205Z,100020.90
2023-03-17T17:07:19.958Z,100021.95
2023-03-17T17:09:50.536Z,100025.39
2023-03-17T17:12:21.177Z,100025.66
2023-03-17T17:14:52.016Z,100027.73
2023-03-17T17:17:22.753Z,100030.27
2023-03-17T17:19:53.562Z,100032.74
2023-03-17T17:22:24.237Z,100032.07
2023-03-17T17:24:55.022Z,100034.38
2023-03-17T17:27:25.994Z,100033.55
2023-03-17T17:29:56.682Z,100032.05
2023-03-17T17:32:27.576Z,100032.04
2023-03-17T17:34:58.299Z,100034.45
2023-03-17T17:37:28.996Z,100031.24
2023-03-17T17:39:59.815Z,100033.33
2023-03-17T17:42:30.586Z,100038.98
2023-03-17T17:45:01.416Z,100034.70
2023-03-17T17:47:32.808Z,100026.33
2023-03-17T17:50:03.584Z,100026.81
2023-03-17T17:52:34.470Z,100028.83
2023-03-17T17:55:06.116Z,100027.34
2023-03-17T17:57:37.821Z,100024.30
2023-03-17T18:00:13.397Z,100027.65
2023-03-17T18:02:44.358Z,100026.25
2023-03-17T18:05:15.584Z,100026.04
2023-03-17T18:07:46.368Z,100025.85
2023-03-17T18:10:22.395Z,100020.08
2023-03-17T18:12:53.565Z,100025.35
2023-03-17T18:15:25.155Z,100027.69
2023-03-17T18:17:56.422Z,100027.69
2023-03-17T18:20:27.843Z,100019.88
2023-03-17T18:22:58.538Z,100022.89
2023-03-17T18:25:29.780Z,100019.88
2023-03-17T18:28:01.874Z,100023.33
2023-03-17T18:30:35.078Z,100019.03
2023-03-17T18:33:10.707Z,100017.14
2023-03-17T18:35:42.489Z,100022.91
2023-03-17T18:38:13.306Z,100020.02
2023-03-17T18:40:45.119Z,100015.47
2023-03-17T18:43:15.724Z,100017.04
2023-03-17T18:45:46.482Z,100020.78
2023-03-17T18:48:17.306Z,100018.39
2023-03-17T18:50:48.129Z,100017.17
2023-03-17T18:53:19.033Z,100022.39
2023-03-17T18:55:50.326Z,100016.45
2023-03-17T18:58:21.099Z,100012.09
2023-03-17T19:00:53.599Z,100010.56
2023-03-17T19:03:24.554Z,100008.61
2023-03-17T19:05:55.295Z,100009.42
2023-03-17T19:08:26.692Z,100007.48
2023-03-17T19:10:57.730Z,100007.26
2023-03-17T19:13:28.565Z,100013.08
2023-03-17T19:15:59.834Z,100006.64
2023-03-17T19:18:30.753Z,100007.77
2023-03-17T19:21:02.321Z,100008.40
2023-03-17T19:23:33.874Z,100006.41
2023-03-17T19:26:05.763Z,100006.91
2023-03-17T19:28:36.508Z,100007.71
2023-03-17T19:31:07.434Z,100005.01
2023-03-17T19:33:38.917Z,100010.10
2023-03-17T19:36:12.428Z,100009.16
2023-03-17T19:38:43.374Z,100013.10
2023-03-17T19:41:15.593Z,100004.08
2023-03-17T19:43:46.394Z,100013.84
2023-03-17T19:46:17.497Z,100008.94
2023-03-17T19:48:48.479Z,100008.54
2023-03-17T19:51:19.912Z,100013.20
2023-03-17T19:53:50.655Z,100011.36
2023-03-17T19:56:23.100Z,100015.04
2023-03-17T19:58:54.111Z,100008.32
2023-03-17T20:01:26.762Z,100008.14
2023-03-17T20:03:57.820Z,100007.59
2023-03-17T20:06:29.515Z,100005.14
2023-03-17T20:09:01.067Z,100010.23
2023-03-17T20:11:34.099Z,100009.02
2023-03-17T20:14:06.107Z,100017.58
2023-03-17T20:16:37.088Z,100017.06
2023-03-17T20:19:08.282Z,100019.62
2023-03-17T20:21:39.189Z,100019.50
2023-03-17T20:24:12.840Z,100020.20
2023-03-17T20:26:44.720Z,100017.95
2023-03-17T20:29:16.106Z,100024.48
2023-03-17T20:31:47.215Z,100023.41
2023-03-17T20:34:17.992Z,100021.55
2023-03-17T20:36:48.619Z,100021.02
2023-03-17T20:39:20.836Z,100020.73
2023-03-17T20:41:52.353Z,100019.86
2023-03-17T20:44:24.013Z,100019.23
2023-03-17T20:46:54.927Z,100015.59
2023-03-17T20:49:25.669Z,100009.43
2023-03-17T20:51:56.350Z,100015.48
2023-03-17T20:54:27.329Z,100010.40
2023-03-17T20:56:58.419Z,100008.14
2023-03-17T20:59:30.021Z,100005.71
2023-03-17T21:02:02.073Z,100010.82
2023-03-17T21:04:32.910Z,100009.71
2023-03-17T21:07:03.811Z,100010.19
2023-03-17T21:09:34.884Z,100006.77
2023-03-17T21:12:05.893Z,100005.35
2023-03-17T21:14:36.612Z,100001.77
2023-03-17T21:17:07.883Z,100006.16
2023-03-17T21:19:38.943Z,100004.68
2023-03-17T21:22:09.599Z,100001.33
2023-03-17T21:24:41.502Z,100001.55
2023-03-17T21:27:13.651Z,100002.02
2023-03-17T21:29:44.574Z,100003.52
2023-03-17T21:32:15.576Z,100004.37
2023-03-17T21:34:47.199Z,100004.64
2023-03-17T21:37:18.874Z,99998.61
2023-03-17T21:39:49.885Z,99998.34
2023-03-17T21:42:20.821Z,99999.45
2023-03-17T21:44:52.348Z,100003.67
2023-03-17T21:47:25.987Z,100006.09
2023-03-17T21:49:57.859Z,100007.23
2023-03-17T21:52:28.782Z,100010.03
2023-03-17T21:54:59.710Z,100011.89
2023-03-17T21:57:30.890Z,100009.41
2023-03-17T22:00:01.894Z,100004.86
2023-03-17T22:02:32.633Z,100003.92
2023-03-17T22:05:03.811Z,100007.39
2023-03-17T22:07:34.429Z,99999.09
2023-03-17T22:10:07.137Z,99997.54
2023-03-17T22:12:37.004Z,99999.88
2023-03-17T22:15:10.321Z,100001.67
2023-03-17T22:17:41.082Z,100006.48
2023-03-17T22:20:13.722Z,100004.92
2023-03-17T22:22:44.572Z,100008.98
2023-03-17T22:25:15.248Z,100011.66
2023-03-17T22:27:46.223Z,100008.20
2023-03-17T22:30:18.989Z,100010.78
2023-03-17T22:32:48.306Z,100004.55
2023-03-17T22:35:20.919Z,100003.72
2023-03-17T22:37:51.572Z,100000.81
2023-03-17T22:40:22.565Z,99994.38
2023-03-17T22:42:56.098Z,99983.01
2023-03-17T22:45:27.222Z,99997.89
2023-03-17T22:47:58.031Z,100000.24
2023-03-17T22:50:28.831Z,99998.52
2023-03-17T22:52:59.616Z,100001.05
2023-03-17T22:55:30.449Z,100004.88
2023-03-17T22:58:01.160Z,100000.86
2023-03-17T23:00:32.553Z,100003.09
2023-03-17T23:03:04.013Z,100001.27
2023-03-17T23:05:34.826Z,99995.06
2023-03-17T23:08:06.209Z,99998.48
2023-03-17T23:10:37.612Z,99998.76
2023-03-17T23:13:08.881Z,99999.53
2023-03-17T23:15:40.393Z,99997.88
2023-03-17T23:18:11.578Z,100003.13
2023-03-17T23:20:42.558Z,100006.34
2023-03-17T23:23:13.865Z,100010.23
2023-03-17T23:25:44.920Z,100012.03
2023-03-17T23:28:16.206Z,100007.48
2023-03-17T23:30:47.403Z,100007.55
2023-03-17T23:33:21.474Z,100003.41
2023-03-17T23:35:53.153Z,100005.54
2023-03-17T23:38:24.166Z,100007.59
2023-03-17T23:40:58.247Z,100008.66
2023-03-17T23:43:28.963Z,100009.96
2023-03-17T23:46:00.551Z,100002.65
2023-03-17T23:48:32.707Z,100002.77
2023-03-17T23:51:03.583Z,100010.81
2023-03-17T23:53:34.392Z,100009.48
2023-03-17T23:56:05.528Z,100015.60
2023-03-17T23:58:36.192Z,100008.89
